Time;durP1;ratioP1;P1;durP2;ratioP2;P2;SDS_P1;SDS_P2;PMS_P1;PMS_P2;Temp;Humidity;BMP_temperature;BMP_pressure;BME280_temperature;BME280_humidity;BME280_pressure;Samples;Min_cycle;Max_cycle;Signal;HPM_P1;HPM_P2
2021/12/24 00:01:10;;;;;;;46.45;23.13;;;;;;;7.25;97.54;100464.88;5072575;28;20435;-67
2021/12/24 00:03:36;;;;;;;45.08;23.38;;;;;;;7.24;97.16;100475.38;5072555;28;20029;-67
2021/12/24 00:06:04;;;;;;;39.67;20.75;;;;;;;7.25;96.66;100464.88;5072606;28;20032;-67
2021/12/24 00:08:30;;;;;;;40.35;22.13;;;;;;;7.26;97.44;100465.75;5072571;28;20534;-67
2021/12/24 00:11:00;;;;;;;42.05;21.85;;;;;;;7.29;97.65;100455.31;5072482;28;20033;-68
2021/12/24 00:13:33;;;;;;;39.97;21.63;;;;;;;7.30;96.81;100454.44;5072378;28;20032;-67
2021/12/24 00:16:10;;;;;;;40.75;21.95;;;;;;;7.31;96.61;100450.94;5072338;28;20393;-68
2021/12/24 00:18:57;;;;;;;38.83;21.48;;;;;;;7.31;96.52;100450.94;5072092;28;20052;-67
2021/12/24 00:37:35;;;;;;;33.47;19.38;;;;;;;7.46;97.00;100437.19;5075815;28;20036;-68
2021/12/24 00:42:32;;;;;;;31.27;19.63;;;;;;;7.51;96.83;100427.63;5075715;28;20040;-69
2021/12/24 00:44:57;;;;;;;31.40;19.75;;;;;;;7.52;96.97;100451.31;5075711;28;20078;-68
2021/12/24 00:47:24;;;;;;;30.20;18.60;;;;;;;7.55;97.24;100437.34;5075649;28;20029;-68
2021/12/24 00:49:50;;;;;;;36.10;20.58;;;;;;;7.52;97.46;100438.16;5057542;28;20401;-68
2021/12/24 00:55:03;;;;;;;31.95;20.48;;;;;;;7.53;97.12;100428.53;5075716;28;20119;-68
2021/12/24 00:57:30;;;;;;;35.83;21.58;;;;;;;7.53;97.52;100429.41;5075374;28;20046;-67
2021/12/24 00:59:56;;;;;;;34.78;22.20;;;;;;;7.55;97.84;100434.72;5057395;28;20090;-67
2021/12/24 01:02:22;;;;;;;32.25;20.42;;;;;;;7.58;97.70;100425.97;5075215;28;20025;-68
2021/12/24 01:04:47;;;;;;;31.90;20.35;;;;;;;7.61;97.43;100428.66;5075376;28;20070;-67
2021/12/24 01:07:13;;;;;;;33.22;21.27;;;;;;;7.60;97.61;100421.66;5075342;28;20025;-68
2021/12/24 01:09:38;;;;;;;36.33;22.70;;;;;;;7.62;97.04;100428.69;5075225;28;20024;-67
2021/12/24 01:12:05;;;;;;;32.15;21.10;;;;;;;7.63;97.87;100419.06;5075002;28;20493;-69
2021/12/24 01:14:31;;;;;;;35.33;21.38;;;;;;;7.63;97.79;100416.44;5075107;28;20020;-68
2021/12/24 01:17:31;;;;;;;30.67;21.27;;;;;;;7.67;97.39;100415.63;5075188;28;20032;-68
2021/12/24 01:20:04;;;;;;;31.45;21.15;;;;;;;7.68;97.86;100422.66;5074912;28;20041;-68
2021/12/24 01:28:06;;;;;;;36.25;21.65;;;;;;;7.73;96.87;100407.81;4993520;28;20049;-68
2021/12/24 01:43:26;;;;;;;45.53;28.42;;;;;;;7.74;97.78;100396.44;4993099;28;20270;-68
2021/12/24 01:45:54;;;;;;;46.00;27.27;;;;;;;7.87;98.41;100421.16;4993328;28;20026;-67
2021/12/24 01:48:21;;;;;;;51.33;28.75;;;;;;;7.89;98.05;100422.09;4993211;28;20030;-69
2021/12/24 01:50:48;;;;;;;54.92;29.13;;;;;;;7.91;97.86;100422.97;4993220;28;20034;-68
2021/12/24 01:53:16;;;;;;;50.47;29.77;;;;;;;7.94;98.49;100423.03;4993211;28;20030;-68
2021/12/24 01:55:43;;;;;;;54.13;31.50;;;;;;;7.95;97.63;100424.81;4976457;28;20470;-68
2021/12/24 01:58:09;;;;;;;53.85;31.92;;;;;;;7.94;98.28;100423.03;4992747;28;20022;-68
2021/12/24 02:00:42;;;;;;;59.95;33.88;;;;;;;7.99;97.93;100427.50;4993025;28;20030;-68
2021/12/24 02:03:09;;;;;;;59.85;34.00;;;;;;;8.00;97.70;100415.22;5061325;28;20036;-68
2021/12/24 02:05:35;;;;;;;62.50;34.17;;;;;;;8.03;98.65;100412.66;5074217;28;20020;-68
2021/12/24 02:08:02;;;;;;;57.75;32.85;;;;;;;8.06;98.01;100430.22;5056110;28;20366;-68
2021/12/24 02:10:29;;;;;;;56.35;33.83;;;;;;;8.07;98.31;100411.81;5074003;28;20020;-68
2021/12/24 02:12:55;;;;;;;61.78;33.03;;;;;;;8.10;98.62;100417.13;5073945;28;20034;-68
2021/12/24 02:29:30;;;;;;;49.80;30.17;;;;;;;8.22;97.83;100411.13;4992637;28;20041;-67
2021/12/24 02:31:56;;;;;;;58.10;33.90;;;;;;;8.22;97.94;100412.03;4992251;28;20026;-67
2021/12/24 02:34:21;;;;;;;56.25;34.33;;;;;;;8.21;97.77;100412.88;4992521;28;20092;-67
2021/12/24 02:36:46;;;;;;;54.95;32.47;;;;;;;8.23;98.24;100413.81;4992159;28;20496;-67
2021/12/24 02:39:12;;;;;;;57.55;33.15;;;;;;;8.28;97.83;100421.75;4992165;28;20064;-68
2021/12/24 02:41:37;;;;;;;57.83;34.35;;;;;;;8.28;97.91;100413.88;4992011;28;20484;-68
2021/12/24 02:44:03;;;;;;;59.08;35.03;;;;;;;8.29;98.10;100407.72;4992190;28;20050;-67
2021/12/24 02:46:39;;;;;;;57.55;33.50;;;;;;;8.30;97.86;100396.31;4992161;28;20042;-68
2021/12/24 02:49:15;;;;;;;59.72;34.47;;;;;;;8.33;97.95;100398.13;5019726;28;20406;-67
2021/12/24 02:54:25;;;;;;;64.00;33.53;;;;;;;8.34;97.64;100403.41;5053659;28;20048;-68
2021/12/24 02:56:54;;;;;;;68.20;36.67;;;;;;;8.30;97.61;100391.06;5053207;28;20064;-67
2021/12/24 02:59:30;;;;;;;66.15;35.53;;;;;;;8.33;97.59;100396.38;5053250;28;20120;-67
2021/12/24 03:01:57;;;;;;;66.03;35.85;;;;;;;8.34;97.46;100395.50;5035279;28;20478;-68
2021/12/24 03:04:23;;;;;;;66.10;37.67;;;;;;;8.35;97.93;100388.47;5053083;28;20108;-68
2021/12/24 03:06:50;;;;;;;72.15;38.42;;;;;;;8.37;98.32;100400.84;5053085;28;20104;-67
2021/12/24 03:09:18;;;;;;;76.82;39.28;;;;;;;8.38;97.78;100393.81;5053120;28;20036;-68
2021/12/24 03:11:46;;;;;;;78.28;39.80;;;;;;;8.38;97.85;100405.25;5052986;28;20466;-68
2021/12/24 03:14:14;;;;;;;72.63;36.78;;;;;;;8.39;97.84;100390.31;5053027;28;20035;-67
2021/12/24 03:16:40;;;;;;;77.07;38.90;;;;;;;8.41;97.97;100388.63;5052909;28;20040;-68
2021/12/24 03:19:08;;;;;;;81.65;39.90;;;;;;;8.40;97.78;100384.22;5059694;28;20057;-68
2021/12/24 03:21:59;;;;;;;79.60;40.13;;;;;;;8.43;97.79;100385.13;5073027;28;20086;-68
2021/12/24 03:26:46;;;;;;;77.32;38.65;;;;;;;8.42;98.08;100385.97;5073101;28;20035;-68
2021/12/24 03:29:13;;;;;;;85.97;37.95;;;;;;;8.44;98.41;100397.44;5072733;28;20025;-67
2021/12/24 03:31:39;;;;;;;71.22;38.70;;;;;;;8.45;98.05;100407.09;5073125;28;20028;-67
2021/12/24 03:34:07;;;;;;;82.60;40.67;;;;;;;8.47;97.89;100393.94;5072917;28;20074;-68
2021/12/24 03:36:33;;;;;;;87.00;40.90;;;;;;;8.47;98.05;100410.63;5072913;28;20031;-67
2021/12/24 03:38:59;;;;;;;85.57;39.33;;;;;;;8.50;97.84;100417.69;5055122;28;20127;-68
2021/12/24 03:41:25;;;;;;;74.90;38.78;;;;;;;8.51;97.81;100411.53;5072988;28;20095;-68
2021/12/24 03:43:51;;;;;;;78.97;38.17;;;;;;;8.50;97.65;100415.94;5072632;28;20020;-68
2021/12/24 03:46:21;;;;;;;84.03;39.30;;;;;;;8.49;97.58;100400.13;5072654;28;20071;-68
2021/12/24 03:49:00;;;;;;;71.28;36.15;;;;;;;8.53;98.32;100408.06;5072803;28;20025;-68
2021/12/24 03:51:50;;;;;;;72.88;36.17;;;;;;;8.56;98.16;100411.59;5072974;28;20032;-68
2021/12/24 03:57:00;;;;;;;68.07;35.78;;;;;;;8.58;97.17;100410.75;5072629;28;20039;-68
2021/12/24 03:59:25;;;;;;;66.95;34.20;;;;;;;8.58;97.70;100405.50;5072699;28;20396;-68
2021/12/24 04:01:51;;;;;;;62.10;32.63;;;;;;;8.60;98.31;100408.13;5075776;28;20398;-68
2021/12/24 04:04:16;;;;;;;63.50;31.63;;;;;;;8.62;97.45;100402.03;5076444;28;20031;-68
2021/12/24 04:06:41;;;;;;;62.35;31.40;;;;;;;8.62;97.51;100401.16;5076391;28;20516;-67
2021/12/24 04:09:08;;;;;;;62.83;29.25;;;;;;;8.64;97.50;100408.19;5076310;28;20024;-68
2021/12/24 04:11:36;;;;;;;53.35;28.88;;;;;;;8.65;97.85;100409.06;5076440;28;20090;-68
2021/12/24 04:14:01;;;;;;;61.78;29.33;;;;;;;8.66;97.91;100406.47;5076363;28;20024;-67
2021/12/24 04:16:28;;;;;;;57.78;26.92;;;;;;;8.66;97.83;100401.19;5076199;28;20038;-68
2021/12/24 04:19:14;;;;;;;46.22;26.10;;;;;;;8.69;97.47;100402.97;5075842;28;20052;-67
2021/12/24 04:27:09;;;;;;;42.33;23.52;;;;;;;8.72;97.06;100406.53;5076207;28;20055;-68
2021/12/24 04:29:34;;;;;;;49.05;22.98;;;;;;;8.73;96.68;100415.31;5076086;28;20028;-66
2021/12/24 04:32:45;;;;;;;42.05;22.70;;;;;;;8.74;96.80;100406.56;5075983;28;20025;-67
2021/12/24 04:34:53;;;;;;;45.58;22.10;;;;;;;8.73;96.30;100408.28;5071781;28;20037;-67
2021/12/24 04:51:22;;;;;;;32.33;15.90;;;;;;;8.73;95.83;100408.28;5075906;28;20047;-67
2021/12/24 05:04:49;;;;;;;28.60;13.18;;;;;;;8.76;95.34;100397.78;5075357;28;20431;-68
2021/12/24 05:09:46;;;;;;;33.63;13.43;;;;;;;8.75;95.14;100406.56;5075346;28;20429;-68
2021/12/24 05:12:12;;;;;;;25.58;12.85;;;;;;;8.73;95.36;100405.66;5074619;28;20070;-67
2021/12/24 05:14:37;;;;;;;25.88;12.95;;;;;;;8.75;95.05;100410.97;5075306;28;20069;-67
2021/12/24 05:17:29;;;;;;;29.38;12.60;;;;;;;8.71;95.08;100401.25;5075088;28;20028;-67
2021/12/24 05:22:35;;;;;;;31.95;13.15;;;;;;;8.74;95.03;100410.06;5075033;28;20046;-68
2021/12/24 05:25:01;;;;;;;33.65;13.60;;;;;;;8.77;94.57;100417.09;5075242;28;20518;-67
2021/12/24 05:27:27;;;;;;;30.75;13.52;;;;;;;8.74;95.06;100415.34;5056904;28;20571;-67
2021/12/24 05:29:53;;;;;;;32.17;12.95;;;;;;;8.75;94.41;100416.22;5075096;28;20108;-67
2021/12/24 05:32:20;;;;;;;34.35;14.43;;;;;;;8.75;94.51;100425.00;5074787;28;20025;-68
2021/12/24 05:34:45;;;;;;;28.15;13.82;;;;;;;8.74;94.22;100425.88;5056947;28;20021;-67
2021/12/24 05:37:11;;;;;;;32.55;13.23;;;;;;;8.72;94.12;100414.44;5074767;28;20043;-68
2021/12/24 05:39:36;;;;;;;29.13;13.38;;;;;;;8.70;94.15;100420.56;5074573;28;20043;-68
2021/12/24 05:42:04;;;;;;;31.75;12.48;;;;;;;8.73;94.04;100426.72;5074680;28;20031;-67
2021/12/24 05:44:31;;;;;;;26.73;11.95;;;;;;;8.71;93.94;100417.06;5074661;28;20024;-67
2021/12/24 05:46:57;;;;;;;25.77;12.18;;;;;;;8.69;93.84;100419.69;5074517;28;20055;-67
2021/12/24 05:49:22;;;;;;;32.58;12.73;;;;;;;8.72;93.93;100426.72;5074591;28;20118;-67
2021/12/24 05:51:47;;;;;;;25.17;12.38;;;;;;;8.71;93.54;100425.84;5074430;28;20024;-67
2021/12/24 05:54:13;;;;;;;30.40;12.40;;;;;;;8.72;93.39;100429.34;5074254;28;20029;-68
2021/12/24 05:56:38;;;;;;;25.50;11.80;;;;;;;8.70;93.81;100436.38;5074557;28;20481;-67
2021/12/24 05:59:06;;;;;;;32.88;13.10;;;;;;;8.70;93.77;100445.16;5074102;28;20028;-67
2021/12/24 06:01:31;;;;;;;31.77;14.00;;;;;;;8.70;93.74;100436.38;5074325;28;20020;-67
2021/12/24 06:03:57;;;;;;;27.42;12.52;;;;;;;8.65;94.05;100428.41;5074220;28;20074;-67
2021/12/24 06:06:22;;;;;;;32.40;13.10;;;;;;;8.66;93.60;100442.47;5074180;28;20028;-67
2021/12/24 06:08:47;;;;;;;32.13;12.50;;;;;;;8.64;93.85;100433.63;5074079;28;20024;-67
2021/12/24 06:11:13;;;;;;;29.13;12.38;;;;;;;8.63;93.67;100435.41;5074009;28;20107;-67
2021/12/24 06:13:38;;;;;;;28.80;12.48;;;;;;;8.64;93.38;100429.25;5056099;28;20031;-67
2021/12/24 06:16:06;;;;;;;31.55;11.82;;;;;;;8.64;93.41;100433.63;5073919;28;20037;-67
2021/12/24 06:18:32;;;;;;;28.65;11.32;;;;;;;8.63;93.13;100432.75;5073869;28;20032;-67
2021/12/24 06:21:01;;;;;;;25.38;11.05;;;;;;;8.62;93.08;100433.63;5073847;28;20136;-67
2021/12/24 06:23:31;;;;;;;26.75;10.82;;;;;;;8.64;93.42;100436.28;5073055;28;20028;-68
2021/12/24 06:25:58;;;;;;;25.73;10.15;;;;;;;8.65;93.13;100443.31;5073699;28;20028;-67
2021/12/24 06:28:25;;;;;;;20.45;9.75;;;;;;;8.63;92.75;100445.94;5073691;28;20033;-68
2021/12/24 06:30:52;;;;;;;28.83;10.63;;;;;;;8.64;93.04;100446.81;5073772;28;20024;-67
2021/12/24 06:33:18;;;;;;;28.00;11.52;;;;;;;8.63;92.64;100435.41;5073627;28;20040;-67
2021/12/24 06:35:44;;;;;;;24.42;10.45;;;;;;;8.63;93.07;100437.16;5073750;28;20021;-67
2021/12/24 06:38:10;;;;;;;24.10;10.23;;;;;;;8.61;92.31;100431.88;5073275;28;20109;-68
2021/12/24 06:40:36;;;;;;;28.58;10.43;;;;;;;8.61;92.42;100433.59;5073456;28;20056;-67
2021/12/24 06:43:01;;;;;;;28.02;10.35;;;;;;;8.63;92.47;100434.50;5073340;28;20109;-67
2021/12/24 06:45:28;;;;;;;23.08;10.55;;;;;;;8.62;92.70;100444.16;5073578;28;20033;-68
2021/12/24 06:47:56;;;;;;;28.05;10.70;;;;;;;8.61;92.38;100438.88;5073418;28;20110;-67
2021/12/24 06:50:22;;;;;;;24.77;11.20;;;;;;;8.57;92.63;100437.97;5073476;28;20024;-67
2021/12/24 06:52:48;;;;;;;26.60;10.88;;;;;;;8.58;92.81;100436.22;5073413;28;20040;-67
2021/12/24 06:55:13;;;;;;;26.02;10.80;;;;;;;8.59;93.17;100444.13;5073348;28;20016;-67
2021/12/24 06:57:41;;;;;;;25.85;9.98;;;;;;;8.56;92.81;100441.44;5073076;28;20025;-67
2021/12/24 07:00:09;;;;;;;22.15;10.02;;;;;;;8.57;92.98;100452.88;5073228;28;20512;-66
2021/12/24 07:02:34;;;;;;;20.70;9.75;;;;;;;8.57;92.44;100448.50;5073276;28;20115;-67
2021/12/24 07:05:00;;;;;;;26.50;10.65;;;;;;;8.58;92.58;100449.38;5073229;28;20422;-67
2021/12/24 07:07:25;;;;;;;20.73;9.75;;;;;;;8.59;92.77;100441.50;5073272;28;20020;-67
2021/12/24 07:09:50;;;;;;;28.58;10.27;;;;;;;8.57;92.35;100437.97;5073219;28;20020;-68
2021/12/24 07:12:16;;;;;;;22.02;9.88;;;;;;;8.59;92.22;100435.34;5073295;28;20492;-67
2021/12/24 07:14:42;;;;;;;25.88;10.00;;;;;;;8.56;92.81;100436.19;5073101;28;20029;-67
2021/12/24 07:17:08;;;;;;;26.30;10.45;;;;;;;8.58;92.54;100430.94;5073115;28;20052;-67
2021/12/24 07:19:34;;;;;;;19.15;9.45;;;;;;;8.55;92.45;100428.25;5058043;28;20093;-67
2021/12/24 07:22:00;;;;;;;27.05;10.95;;;;;;;8.56;92.67;100428.28;5072987;28;20481;-67
2021/12/24 07:24:26;;;;;;;24.65;10.45;;;;;;;8.54;92.72;100427.38;5072900;28;20040;-67
2021/12/24 07:26:51;;;;;;;30.02;10.75;;;;;;;8.56;92.82;100438.81;5072948;28;20071;-68
2021/12/24 07:29:17;;;;;;;22.95;10.48;;;;;;;8.55;92.46;100439.69;5072958;28;20021;-67
2021/12/24 07:31:42;;;;;;;26.40;10.43;;;;;;;8.55;92.69;100444.06;5072912;28;20568;-67
2021/12/24 07:34:08;;;;;;;27.73;10.98;;;;;;;8.57;92.46;100442.34;5073252;28;20021;-67
2021/12/24 07:36:33;;;;;;;30.23;11.57;;;;;;;8.57;92.13;100442.34;5077099;28;20104;-67
2021/12/24 07:38:59;;;;;;;23.42;10.80;;;;;;;8.60;92.13;100455.53;5076956;28;20090;-67
2021/12/24 07:41:25;;;;;;;25.23;10.48;;;;;;;8.60;92.04;100450.28;5076834;28;20099;-68
2021/12/24 07:43:51;;;;;;;22.40;10.52;;;;;;;8.57;92.47;100445.00;5076964;28;20109;-67
2021/12/24 07:46:17;;;;;;;28.48;11.43;;;;;;;8.57;92.03;100447.63;5076837;28;20035;-67
2021/12/24 07:48:49;;;;;;;28.27;11.70;;;;;;;8.57;92.01;100453.78;5076850;28;20029;-67
2021/12/24 07:54:03;;;;;;;29.65;11.25;;;;;;;8.55;92.42;100457.25;5076547;28;20122;-67
2021/12/24 07:56:31;;;;;;;24.15;10.77;;;;;;;8.56;92.17;100457.25;5076627;28;20023;-68
2021/12/24 07:58:58;;;;;;;26.35;12.07;;;;;;;8.58;91.92;100454.66;5076305;28;20032;-67
2021/12/24 08:01:27;;;;;;;27.70;11.27;;;;;;;8.60;91.95;100453.78;5076570;28;20052;-67
2021/12/24 08:03:54;;;;;;;32.15;13.10;;;;;;;8.58;91.94;100445.00;5076368;28;20099;-67
2021/12/24 08:06:28;;;;;;;28.15;12.23;;;;;;;8.61;91.77;100449.41;5076102;28;20059;-68
2021/12/24 08:08:53;;;;;;;28.85;12.48;;;;;;;8.61;92.05;100439.78;5075811;28;20060;-67
2021/12/24 08:11:20;;;;;;;33.65;13.07;;;;;;;8.56;92.01;100432.66;5075834;28;20117;-67
2021/12/24 08:13:46;;;;;;;25.90;12.27;;;;;;;8.59;92.21;100443.25;5074450;28;20025;-68
2021/12/24 08:16:13;;;;;;;31.20;13.48;;;;;;;8.58;92.37;100444.13;5075642;28;20024;-67
2021/12/24 08:18:38;;;;;;;31.52;13.00;;;;;;;8.55;91.68;100446.69;5074361;28;20031;-67
2021/12/24 08:21:04;;;;;;;31.02;13.55;;;;;;;8.58;92.20;100452.00;5075159;28;20098;-67
2021/12/24 08:23:35;;;;;;;32.75;12.52;;;;;;;8.57;92.01;100448.50;5075815;28;20028;-67
2021/12/24 08:26:01;;;;;;;24.85;13.43;;;;;;;8.58;91.89;100450.25;5075441;28;20020;-67
2021/12/24 08:28:28;;;;;;;34.97;13.07;;;;;;;8.58;91.81;100439.72;5075649;28;20044;-67
2021/12/24 08:30:55;;;;;;;25.02;11.68;;;;;;;8.58;91.63;100452.00;5075431;28;20331;-67
2021/12/24 08:33:21;;;;;;;31.20;12.25;;;;;;;8.59;91.92;100456.41;5075483;28;20028;-67
2021/12/24 08:35:47;;;;;;;28.55;12.10;;;;;;;8.59;91.66;100454.66;5075110;28;20086;-67
2021/12/24 08:38:13;;;;;;;29.23;12.10;;;;;;;8.59;91.92;100454.66;5075184;28;20098;-67
2021/12/24 08:40:39;;;;;;;28.95;12.65;;;;;;;8.58;91.93;100450.25;5075411;28;20461;-67
2021/12/24 08:43:04;;;;;;;25.88;12.20;;;;;;;8.61;91.10;100450.31;5075225;28;20028;-67
2021/12/24 08:45:30;;;;;;;25.70;12.70;;;;;;;8.59;91.22;100441.50;5075142;28;20074;-67
2021/12/24 08:47:58;;;;;;;26.38;12.18;;;;;;;8.59;91.17;100433.59;5074591;28;20025;-67
2021/12/24 08:50:23;;;;;;;27.15;12.38;;;;;;;8.59;91.42;100430.06;5057166;28;20035;-67
2021/12/24 08:52:49;;;;;;;27.75;11.50;;;;;;;8.62;91.45;100436.28;5074687;28;20024;-67
2021/12/24 08:55:15;;;;;;;33.20;11.98;;;;;;;8.61;91.42;100431.88;5075151;28;20024;-67
2021/12/24 08:57:42;;;;;;;28.75;11.80;;;;;;;8.63;91.07;100430.13;5074852;28;20120;-67
2021/12/24 09:00:11;;;;;;;31.10;10.68;;;;;;;8.62;91.41;100425.72;5074902;28;20036;-67
2021/12/24 09:02:37;;;;;;;27.70;11.02;;;;;;;8.65;91.20;100428.41;5074576;28;20028;-67
2021/12/24 09:05:05;;;;;;;36.50;13.10;;;;;;;8.66;91.47;100437.19;5074453;28;20470;-67
2021/12/24 09:07:31;;;;;;;28.10;11.77;;;;;;;8.70;91.29;100436.38;5056237;28;20028;-67
2021/12/24 09:09:56;;;;;;;32.33;11.60;;;;;;;8.69;91.05;100422.31;5074350;28;20409;-67
2021/12/24 09:12:22;;;;;;;33.17;12.18;;;;;;;8.69;91.29;100424.94;5074734;28;20028;-67
2021/12/24 09:14:47;;;;;;;28.08;10.95;;;;;;;8.73;91.14;100428.47;5074623;28;20016;-67
2021/12/24 09:17:13;;;;;;;38.05;12.50;;;;;;;8.72;90.86;100424.09;5074764;28;20016;-67
2021/12/24 09:19:44;;;;;;;29.08;12.13;;;;;;;8.70;90.95;100421.44;5058359;28;20455;-67
2021/12/24 09:22:16;;;;;;;29.58;12.55;;;;;;;8.71;91.30;100417.06;5074551;28;20461;-67
2021/12/24 09:24:42;;;;;;;34.40;12.40;;;;;;;8.73;90.73;100421.44;5074623;28;20119;-67
2021/12/24 09:27:08;;;;;;;26.10;12.10;;;;;;;8.74;91.35;100412.72;5074413;28;20063;-67
2021/12/24 09:29:33;;;;;;;27.67;11.80;;;;;;;8.77;90.93;100422.38;5074463;28;20044;-68
2021/12/24 09:31:59;;;;;;;32.15;12.65;;;;;;;8.76;91.23;100418.88;5074356;28;20453;-68
2021/12/24 09:34:24;;;;;;;34.30;12.77;;;;;;;8.78;91.17;100425.06;5074519;28;20029;-67
2021/12/24 09:36:50;;;;;;;29.42;11.60;;;;;;;8.81;90.79;100425.94;5074015;28;20021;-67
2021/12/24 09:39:16;;;;;;;36.13;12.90;;;;;;;8.79;90.74;100423.28;5074299;28;20028;-66
2021/12/24 09:41:43;;;;;;;34.13;12.77;;;;;;;8.80;90.49;100432.97;5073990;28;20062;-66
2021/12/24 09:44:08;;;;;;;31.77;12.05;;;;;;;8.82;90.67;100433.84;5074490;28;20020;-66
2021/12/24 09:46:36;;;;;;;27.55;11.50;;;;;;;8.83;90.75;100426.84;5073997;28;20036;-66
2021/12/24 09:49:01;;;;;;;28.25;11.98;;;;;;;8.85;90.78;100430.38;5074169;28;20025;-67
2021/12/24 09:51:27;;;;;;;29.65;10.75;;;;;;;8.84;90.67;100425.97;5074154;28;20028;-67
2021/12/24 09:53:55;;;;;;;25.30;11.10;;;;;;;8.85;90.33;100431.25;5074065;28;20029;-67
2021/12/24 09:56:21;;;;;;;30.98;11.65;;;;;;;8.85;90.71;100430.38;5073878;28;20519;-67
2021/12/24 09:58:47;;;;;;;27.08;10.73;;;;;;;8.84;90.94;100429.50;5072678;28;20029;-67
2021/12/24 10:01:30;;;;;;;32.78;11.23;;;;;;;8.87;90.70;100426.03;5073947;28;20024;-67
2021/12/24 10:04:05;;;;;;;29.13;11.05;;;;;;;8.86;90.87;100427.75;5070310;28;20115;-67
2021/12/24 10:06:31;;;;;;;30.67;11.73;;;;;;;8.86;90.79;100425.09;5073604;28;20031;-67
2021/12/24 10:09:03;;;;;;;24.42;11.65;;;;;;;8.86;90.58;100422.47;5073442;28;20028;-67
2021/12/24 10:11:50;;;;;;;23.88;10.70;;;;;;;8.84;90.45;100415.44;5073565;28;20024;-67
2021/12/24 10:14:19;;;;;;;30.55;11.52;;;;;;;8.85;90.84;100425.97;5073263;28;20054;-67
2021/12/24 10:16:46;;;;;;;31.05;11.32;;;;;;;8.85;90.72;100419.84;5073491;28;20078;-67
2021/12/24 10:19:13;;;;;;;29.63;11.85;;;;;;;8.86;90.41;100418.97;5073079;28;20051;-66
2021/12/24 10:21:39;;;;;;;34.45;13.10;;;;;;;8.89;90.32;100421.63;5073317;28;20384;-67
2021/12/24 10:24:12;;;;;;;32.65;12.80;;;;;;;8.87;90.56;100424.25;5073137;28;20025;-66
2021/12/24 10:26:49;;;;;;;34.67;12.50;;;;;;;8.92;90.49;100417.28;5073038;28;20032;-66
2021/12/24 10:29:18;;;;;;;28.45;12.52;;;;;;;8.93;90.70;100418.16;5073138;28;20027;-66
2021/12/24 10:31:52;;;;;;;34.72;14.85;;;;;;;8.94;90.89;100417.28;5073201;28;20029;-67
2021/12/24 10:34:23;;;;;;;44.78;17.05;;;;;;;8.98;90.92;100406.78;5054999;28;20111;-67
2021/12/24 10:36:56;;;;;;;33.28;13.55;;;;;;;8.99;90.65;100413.84;5072920;28;20024;-67
2021/12/24 10:39:26;;;;;;;42.60;16.48;;;;;;;9.02;90.66;100410.34;5072984;28;20054;-66
2021/12/24 10:41:54;;;;;;;38.55;16.95;;;;;;;9.01;90.62;100406.84;5054496;28;20381;-67
2021/12/24 10:44:29;;;;;;;36.38;16.40;;;;;;;9.02;91.24;100415.63;5072989;28;20021;-66
2021/12/24 10:47:09;;;;;;;40.85;16.48;;;;;;;9.03;90.98;100409.47;5072795;28;20040;-67
2021/12/24 10:54:49;;;;;;;38.67;14.75;;;;;;;9.10;90.19;100408.69;5073185;28;20405;-66
2021/12/24 10:57:17;;;;;;;40.00;15.82;;;;;;;9.11;90.52;100401.66;5072615;28;20029;-66
2021/12/24 10:59:44;;;;;;;36.97;15.15;;;;;;;9.13;90.06;100403.44;5072954;28;20162;-66
2021/12/24 11:02:10;;;;;;;36.67;15.25;;;;;;;9.13;90.02;100402.56;5072756;28;20029;-66
2021/12/24 11:04:37;;;;;;;33.20;15.70;;;;;;;9.10;90.32;100403.41;5072931;28;20036;-66
2021/12/24 11:07:02;;;;;;;37.50;14.73;;;;;;;9.15;89.81;100406.09;5072621;28;20035;-67
2021/12/24 11:09:28;;;;;;;40.90;16.27;;;;;;;9.11;90.13;100407.81;5071570;28;20029;-67
2021/12/24 11:11:58;;;;;;;39.35;16.17;;;;;;;9.11;89.88;100402.53;5054587;28;20035;-66
2021/12/24 11:14:23;;;;;;;36.63;15.95;;;;;;;9.09;89.92;100401.66;5072463;28;20082;-67
2021/12/24 11:16:49;;;;;;;36.88;15.15;;;;;;;9.11;90.06;100399.91;5072638;28;20436;-66
2021/12/24 11:19:14;;;;;;;44.47;15.20;;;;;;;9.12;89.74;100406.03;5072284;28;20059;-66
2021/12/24 11:21:41;;;;;;;35.22;15.20;;;;;;;9.14;89.78;100402.56;5072617;28;20493;-66
2021/12/24 11:24:06;;;;;;;37.47;15.82;;;;;;;9.13;89.81;100405.19;5072396;28;20052;-66
2021/12/24 11:26:40;;;;;;;37.58;17.90;;;;;;;9.14;90.22;100399.06;5072566;28;20043;-66
2021/12/24 11:29:14;;;;;;;42.83;18.95;;;;;;;9.18;90.05;100404.38;5072410;28;20453;-69
2021/12/24 11:31:40;;;;;;;41.85;19.25;;;;;;;9.18;89.74;100401.72;5072474;28;20020;-63
2021/12/24 11:34:07;;;;;;;47.92;21.88;;;;;;;9.18;89.90;100409.63;5072380;28;20016;-63
2021/12/24 11:36:32;;;;;;;47.42;23.92;;;;;;;9.18;89.90;100401.72;5072250;28;20036;-64
2021/12/24 11:39:01;;;;;;;56.25;24.48;;;;;;;9.20;89.77;100404.38;5072186;28;20040;-63
2021/12/24 11:41:31;;;;;;;50.55;25.85;;;;;;;9.21;89.79;100408.78;5072332;28;20025;-63
2021/12/24 11:43:57;;;;;;;46.83;23.40;;;;;;;9.19;89.38;100395.56;5072355;28;20584;-63
2021/12/24 11:46:25;;;;;;;46.20;22.48;;;;;;;9.23;89.53;100412.31;5072126;28;20024;-63
2021/12/24 11:48:53;;;;;;;51.70;23.95;;;;;;;9.24;89.36;100406.16;5072369;28;20047;-64
2021/12/24 11:51:20;;;;;;;40.80;20.98;;;;;;;9.26;89.78;100404.44;5072148;28;20020;-62
2021/12/24 11:53:46;;;;;;;49.55;21.75;;;;;;;9.27;89.85;100398.28;5072179;28;20474;-63
2021/12/24 11:56:15;;;;;;;49.65;21.83;;;;;;;9.29;89.71;100396.53;5072244;28;20021;-63
2021/12/24 11:58:50;;;;;;;49.83;23.88;;;;;;;9.30;89.48;100392.19;5071797;28;20028;-63
2021/12/24 12:01:18;;;;;;;53.67;23.13;;;;;;;9.31;89.32;100392.19;5072201;28;20032;-63
2021/12/24 12:03:54;;;;;;;48.78;23.50;;;;;;;9.31;89.37;100397.44;5054353;28;20024;-62
2021/12/24 12:06:22;;;;;;;49.80;24.08;;;;;;;9.34;89.46;100400.13;5072207;28;20497;-63
2021/12/24 12:08:53;;;;;;;49.60;24.08;;;;;;;9.34;89.82;100396.59;5072169;28;20093;-63
2021/12/24 12:11:20;;;;;;;57.53;25.35;;;;;;;9.35;89.49;100401.00;5072107;28;20111;-63
2021/12/24 12:13:49;;;;;;;46.75;22.85;;;;;;;9.37;89.49;100389.56;5071946;28;20054;-63
2021/12/24 12:16:19;;;;;;;59.08;24.35;;;;;;;9.39;89.80;100384.34;5072714;28;20032;-64
2021/12/24 12:18:50;;;;;;;44.05;24.10;;;;;;;9.41;89.60;100386.09;5091752;28;20035;-63
2021/12/24 12:21:36;;;;;;;52.67;23.52;;;;;;;9.43;89.56;100383.50;5074589;28;20048;-63
2021/12/24 12:26:42;;;;;;;50.58;22.88;;;;;;;9.49;89.49;100378.25;5096077;28;20427;-63
2021/12/24 12:29:50;;;;;;;50.47;23.80;;;;;;;9.51;89.29;100376.53;5095306;28;20032;-63
2021/12/24 12:32:16;;;;;;;44.30;22.80;;;;;;;9.50;89.31;100382.66;4994023;28;20069;-63
2021/12/24 12:34:41;;;;;;;45.88;23.15;;;;;;;9.49;89.43;100380.88;4993791;28;20550;-63
2021/12/24 12:37:17;;;;;;;46.88;23.40;;;;;;;9.51;89.40;100384.44;4994054;28;20034;-63
2021/12/24 12:39:44;;;;;;;46.58;20.80;;;;;;;9.50;89.48;100383.53;4993713;28;20026;-63
2021/12/24 12:42:11;;;;;;;45.33;20.95;;;;;;;9.50;89.41;100383.53;4993568;28;20042;-63
2021/12/24 12:44:39;;;;;;;47.58;21.02;;;;;;;9.51;89.71;100385.31;4993581;28;20093;-66
2021/12/24 12:47:21;;;;;;;35.53;17.77;;;;;;;9.53;89.59;100378.28;4993631;28;20519;-63
2021/12/24 12:49:48;;;;;;;41.90;19.20;;;;;;;9.56;89.17;100389.75;4993574;28;20170;-64
2021/12/24 12:52:31;;;;;;;46.00;19.75;;;;;;;9.57;89.38;100384.47;4993163;28;20396;-63
2021/12/24 12:54:58;;;;;;;40.30;18.88;;;;;;;9.55;89.23;100386.22;4993736;28;20046;-63
2021/12/24 12:57:32;;;;;;;36.38;18.55;;;;;;;9.55;89.30;100388.88;4993486;28;20058;-63
2021/12/24 13:00:07;;;;;;;38.00;19.77;;;;;;;9.57;89.94;100387.09;4993247;28;20034;-64
2021/12/24 13:06:20;;;;;;;42.83;18.55;;;;;;;9.62;89.21;100376.59;4935474;29;20414;-62
2021/12/24 13:08:45;;;;;;;41.92;19.40;;;;;;;9.64;89.85;100377.50;5019391;28;20033;-64
2021/12/24 13:11:14;;;;;;;38.42;18.75;;;;;;;9.65;89.59;100374.84;5032514;28;20037;-64
2021/12/24 13:13:50;;;;;;;38.60;18.30;;;;;;;9.66;89.28;100381.00;5032316;28;20044;-64